Time;durP1;ratioP1;P1;durP2;ratioP2;P2;SDS_P1;SDS_P2;PMS_P1;PMS_P2;Temp;Humidity;BMP_temperature;BMP_pressure;BME280_temperature;BME280_humidity;BME280_pressure;Samples;Min_cycle;Max_cycle;Signal;HPM_P1;HPM_P2
2021/11/29 00:00:17;;;;;;;9.73;7.17;;;;;;;2.91;84.09;99144.50;5024728;28;20209;-79
2021/11/29 00:02:48;;;;;;;8.77;6.87;;;;;;;2.88;84.56;99134.16;5024141;28;20203;-79
2021/11/29 00:05:15;;;;;;;10.67;7.27;;;;;;;2.89;84.17;99141.09;5022712;28;20242;-79
2021/11/29 00:07:42;;;;;;;10.77;6.63;;;;;;;2.89;84.10;99138.47;5019796;28;20209;-79
2021/11/29 00:10:09;;;;;;;7.87;6.30;;;;;;;2.89;84.12;99141.97;5022623;28;20561;-79
2021/11/29 00:12:36;;;;;;;9.77;6.40;;;;;;;2.90;83.84;99154.16;5025720;28;20694;-80
2021/11/29 00:15:04;;;;;;;8.23;5.80;;;;;;;2.91;83.92;99155.88;5024601;28;20600;-79
2021/11/29 00:17:32;;;;;;;10.00;5.73;;;;;;;2.91;83.75;99165.53;5027935;28;20660;-79
2021/11/29 00:19:58;;;;;;;7.47;5.63;;;;;;;2.92;83.86;99165.47;5029100;28;20230;-80
2021/11/29 00:22:25;;;;;;;7.37;5.60;;;;;;;2.91;84.37;99163.75;5019859;28;20211;-80
2021/11/29 00:24:52;;;;;;;8.17;5.60;;;;;;;2.90;84.23;99169.94;5024882;28;20829;-79
2021/11/29 00:27:18;;;;;;;8.37;5.77;;;;;;;2.92;83.55;99167.25;5033716;28;20213;-79
2021/11/29 00:29:45;;;;;;;6.97;4.87;;;;;;;2.93;83.69;99163.69;5034974;28;20685;-79
2021/11/29 00:32:11;;;;;;;8.37;5.27;;;;;;;2.94;83.72;99168.00;5029374;28;20210;-79
2021/11/29 00:34:39;;;;;;;6.13;4.53;;;;;;;2.94;83.59;99171.47;5029644;28;20310;-80
2021/11/29 00:37:06;;;;;;;8.27;5.13;;;;;;;2.94;84.21;99158.34;5029072;28;20206;-79
2021/11/29 00:39:33;;;;;;;5.87;4.57;;;;;;;2.96;84.42;99168.78;5033228;28;20247;-80
2021/11/29 00:41:59;;;;;;;6.70;5.00;;;;;;;2.95;84.01;99165.28;5032405;28;20207;-79
2021/11/29 00:44:26;;;;;;;7.37;5.23;;;;;;;2.95;84.40;99161.81;5020702;28;20235;-80
2021/11/29 00:46:53;;;;;;;8.47;5.53;;;;;;;2.94;84.61;99165.38;5034863;28;20210;-79
2021/11/29 00:49:20;;;;;;;5.53;4.70;;;;;;;2.94;83.79;99171.47;5028188;28;20252;-79
2021/11/29 00:51:47;;;;;;;7.97;4.93;;;;;;;2.93;84.69;99174.19;5018292;28;20217;-79
2021/11/29 00:54:14;;;;;;;7.47;4.90;;;;;;;2.91;83.85;99174.28;5023381;28;20245;-80
2021/11/29 00:56:41;;;;;;;7.07;4.57;;;;;;;2.91;84.55;99168.16;5014547;28;20208;-79
2021/11/29 00:59:08;;;;;;;7.37;5.30;;;;;;;2.89;84.52;99177.91;5034458;28;20221;-81
2021/11/29 01:01:35;;;;;;;6.27;5.13;;;;;;;2.89;84.57;99172.66;5023158;28;20203;-80
2021/11/29 01:04:02;;;;;;;7.33;5.23;;;;;;;2.89;85.03;99178.78;5034889;28;20239;-80
2021/11/29 01:06:29;;;;;;;6.50;5.20;;;;;;;2.88;84.72;99174.44;5024952;28;20211;-79
2021/11/29 01:08:56;;;;;;;7.07;5.40;;;;;;;2.88;85.07;99170.97;5022640;28;20631;-79
2021/11/29 01:11:23;;;;;;;6.63;5.30;;;;;;;2.88;84.69;99176.22;5017889;28;20626;-80
2021/11/29 01:13:50;;;;;;;5.70;4.53;;;;;;;2.88;84.91;99181.47;5029207;28;20200;-79
2021/11/29 01:16:16;;;;;;;6.30;4.37;;;;;;;2.86;85.15;99184.22;5034094;28;20226;-79
2021/11/29 01:18:43;;;;;;;5.20;4.30;;;;;;;2.87;85.36;99177.16;5033165;28;20213;-80
2021/11/29 01:21:09;;;;;;;4.93;4.10;;;;;;;2.85;84.62;99176.41;5032379;28;20242;-79
2021/11/29 01:23:36;;;;;;;5.47;4.10;;;;;;;2.84;85.07;99170.31;5020507;28;20225;-79
2021/11/29 01:26:04;;;;;;;4.60;4.10;;;;;;;2.83;84.93;99183.53;5024737;28;20241;-79
2021/11/29 01:28:31;;;;;;;5.77;4.30;;;;;;;2.84;85.46;99187.88;5023672;28;20278;-79
2021/11/29 01:30:58;;;;;;;5.00;4.13;;;;;;;2.83;85.33;99186.16;5029169;28;20206;-80
2021/11/29 01:33:24;;;;;;;3.93;3.53;;;;;;;2.81;85.25;99175.72;5037636;28;20269;-80
2021/11/29 01:35:51;;;;;;;5.00;4.50;;;;;;;2.81;85.33;99190.66;5023332;28;20230;-80
2021/11/29 01:38:17;;;;;;;6.07;3.90;;;;;;;2.79;85.67;99183.69;5022076;28;20225;-80
2021/11/29 01:40:44;;;;;;;5.93;3.90;;;;;;;2.78;85.76;99187.25;5014949;28;20213;-80
2021/11/29 01:43:14;;;;;;;4.43;4.03;;;;;;;2.79;85.83;99186.34;5042176;28;20213;-80
2021/11/29 01:45:43;;;;;;;5.00;3.90;;;;;;;2.79;86.10;99191.59;5021563;28;20696;-80
2021/11/29 01:48:10;;;;;;;4.80;4.13;;;;;;;2.79;85.79;99194.22;5020767;28;20214;-80
2021/11/29 01:50:39;;;;;;;5.30;3.87;;;;;;;2.78;85.43;99189.03;5020065;28;20228;-80
2021/11/29 01:53:07;;;;;;;5.30;3.80;;;;;;;2.79;85.84;99188.09;5020499;28;20319;-80
2021/11/29 01:55:34;;;;;;;4.93;4.13;;;;;;;2.77;86.40;99190.81;5023288;28;20215;-80
2021/11/29 01:58:01;;;;;;;3.50;3.13;;;;;;;2.78;85.63;99189.03;5015622;28;20207;-80
2021/11/29 02:00:33;;;;;;;4.83;3.13;;;;;;;2.78;85.67;99186.41;5029712;28;20210;-80
2021/11/29 02:02:59;;;;;;;6.13;3.73;;;;;;;2.76;85.95;99189.13;5030602;28;20214;-80
2021/11/29 02:05:26;;;;;;;5.10;3.37;;;;;;;2.75;85.74;99189.19;5023462;28;20257;-80
2021/11/29 02:07:54;;;;;;;4.63;3.33;;;;;;;2.75;86.06;99197.09;5030255;28;20218;-80
2021/11/29 02:10:24;;;;;;;4.43;3.80;;;;;;;2.72;85.89;99190.22;5017098;28;20227;-80
2021/11/29 02:12:51;;;;;;;4.50;3.50;;;;;;;2.72;86.29;99194.63;5011860;28;20646;-79
2021/11/29 02:15:18;;;;;;;5.67;3.13;;;;;;;2.69;86.04;99198.25;5016890;28;20227;-80
2021/11/29 02:17:46;;;;;;;4.47;3.73;;;;;;;2.67;85.81;99199.31;5014558;28;20206;-80
2021/11/29 02:20:16;;;;;;;5.03;3.60;;;;;;;2.67;85.99;99202.78;5024921;28;20237;-80
2021/11/29 02:22:45;;;;;;;4.10;3.60;;;;;;;2.68;86.69;99203.63;5022013;28;20639;-80
2021/11/29 02:25:12;;;;;;;4.03;3.63;;;;;;;2.67;86.49;99202.78;5021514;28;20241;-80
2021/11/29 02:27:41;;;;;;;5.10;3.50;;;;;;;2.65;86.28;99207.28;5019428;28;20570;-81
2021/11/29 02:30:09;;;;;;;5.33;3.83;;;;;;;2.66;86.31;99208.97;5020455;28;20236;-80
2021/11/29 02:32:36;;;;;;;4.90;4.03;;;;;;;2.67;86.26;99207.19;5033437;28;20210;-80
2021/11/29 02:35:03;;;;;;;5.90;4.03;;;;;;;2.67;86.16;99212.44;5035889;28;20227;-81
2021/11/29 02:37:29;;;;;;;4.57;3.90;;;;;;;2.67;86.75;99209.81;5031583;28;20214;-80
2021/11/29 02:39:57;;;;;;;4.50;4.10;;;;;;;2.67;87.20;99209.81;5020042;28;20283;-80
2021/11/29 02:42:25;;;;;;;4.03;3.63;;;;;;;2.65;86.54;99216.94;5029646;28;20218;-80
2021/11/29 02:44:52;;;;;;;4.77;3.73;;;;;;;2.64;87.18;99212.59;5038034;28;20774;-80
2021/11/29 02:47:18;;;;;;;4.30;3.90;;;;;;;2.62;86.84;99217.09;5017489;28;20228;-80
2021/11/29 02:49:45;;;;;;;5.03;3.70;;;;;;;2.62;86.63;99217.09;5027809;28;20298;-79
2021/11/29 02:52:14;;;;;;;5.63;4.00;;;;;;;2.59;87.31;99218.09;5021881;28;20211;-79
2021/11/29 02:54:43;;;;;;;4.63;3.83;;;;;;;2.60;87.03;99225.06;5032286;28;20233;-80
2021/11/29 02:57:14;;;;;;;4.80;3.93;;;;;;;2.62;87.03;99228.47;5016577;28;20207;-80
2021/11/29 02:59:41;;;;;;;4.80;3.83;;;;;;;2.62;86.57;99220.56;5012812;28;20203;-79
2021/11/29 03:02:11;;;;;;;4.57;3.73;;;;;;;2.63;86.54;99227.53;5021241;28;20210;-80
2021/11/29 03:04:38;;;;;;;3.90;3.57;;;;;;;2.65;87.01;99227.44;5014223;28;20236;-79
2021/11/29 03:07:05;;;;;;;4.13;3.67;;;;;;;2.66;87.39;99235.25;5021547;28;20218;-80
2021/11/29 03:09:33;;;;;;;5.40;3.87;;;;;;;2.65;87.05;99228.28;5027020;28;20217;-80
2021/11/29 03:12:01;;;;;;;4.77;4.27;;;;;;;2.66;87.71;99234.41;5019148;28;20230;-80
2021/11/29 03:14:29;;;;;;;3.80;3.40;;;;;;;2.65;87.79;99235.34;5020534;28;20386;-80
2021/11/29 03:16:57;;;;;;;4.23;3.77;;;;;;;2.66;86.88;99237.88;5028119;28;20210;-81
2021/11/29 03:19:30;;;;;;;4.10;3.70;;;;;;;2.66;86.96;99235.25;5028491;28;20249;-80
2021/11/29 03:21:59;;;;;;;4.63;4.20;;;;;;;2.68;87.18;99243.06;5039091;28;20206;-81
2021/11/29 03:24:29;;;;;;;4.27;3.63;;;;;;;2.68;87.49;99237.81;5047902;28;20268;-81
2021/11/29 03:27:04;;;;;;;4.27;3.77;;;;;;;2.70;87.32;99242.03;5038277;28;20214;-81
2021/11/29 03:29:32;;;;;;;4.17;3.77;;;;;;;2.70;87.13;99243.78;5043956;28;20273;-81
2021/11/29 03:32:02;;;;;;;4.63;3.77;;;;;;;2.72;87.51;99250.69;5014933;28;20203;-81
2021/11/29 03:34:31;;;;;;;4.57;4.00;;;;;;;2.71;87.20;99251.59;5025767;28;20285;-82
2021/11/29 03:36:59;;;;;;;5.13;4.40;;;;;;;2.72;87.66;99250.69;5028514;28;20207;-81
2021/11/29 03:39:28;;;;;;;4.37;3.27;;;;;;;2.73;87.84;99251.53;5032332;28;20206;-82
2021/11/29 03:41:56;;;;;;;4.43;3.20;;;;;;;2.71;87.78;99248.13;5039936;28;20230;-81
2021/11/29 03:44:23;;;;;;;3.53;2.83;;;;;;;2.71;87.45;99250.75;5033172;28;20245;-83
2021/11/29 03:46:54;;;;;;;2.30;2.00;;;;;;;2.70;88.05;99257.78;5040994;28;20238;-82
2021/11/29 03:49:20;;;;;;;3.00;2.47;;;;;;;2.69;87.17;99250.84;5029272;28;20574;-81
2021/11/29 03:51:47;;;;;;;2.37;2.00;;;;;;;2.69;88.22;99245.56;5021581;28;20569;-82
2021/11/29 03:54:14;;;;;;;2.93;2.10;;;;;;;2.70;87.33;99251.69;5031099;28;20325;-82
2021/11/29 03:56:41;;;;;;;3.17;2.10;;;;;;;2.69;87.20;99258.72;5025346;28;20203;-82
2021/11/29 03:59:08;;;;;;;3.00;1.90;;;;;;;2.70;87.62;99264.81;5043776;28;20228;-82
2021/11/29 04:01:35;;;;;;;3.17;2.13;;;;;;;2.70;87.75;99249.91;5028777;28;20278;-82
2021/11/29 04:04:04;;;;;;;2.93;2.13;;;;;;;2.71;87.72;99264.75;5046741;28;20302;-82
2021/11/29 04:06:31;;;;;;;2.67;1.87;;;;;;;2.71;87.87;99264.75;5026793;28;20257;-82
2021/11/29 04:08:58;;;;;;;2.00;1.80;;;;;;;2.72;87.84;99263.81;5026370;28;20245;-82
2021/11/29 04:11:25;;;;;;;2.87;2.23;;;;;;;2.72;87.70;99268.22;5028041;28;20302;-82
2021/11/29 04:13:51;;;;;;;3.77;2.67;;;;;;;2.73;87.30;99270.78;5029971;28;20215;-81
2021/11/29 04:16:18;;;;;;;3.30;3.00;;;;;;;2.75;87.29;99276.81;5035935;28;20222;-81
2021/11/29 04:18:46;;;;;;;4.07;3.50;;;;;;;2.73;87.55;99265.53;5045689;28;20230;-81
2021/11/29 04:21:15;;;;;;;4.20;3.40;;;;;;;2.76;88.03;99275.88;5039473;28;20269;-81
2021/11/29 04:23:44;;;;;;;5.10;3.80;;;;;;;2.74;87.67;99277.75;5043336;28;20213;-81
2021/11/29 04:26:14;;;;;;;5.47;4.17;;;;;;;2.76;87.40;99283.75;5031506;28;20245;-81
2021/11/29 04:28:41;;;;;;;4.60;4.20;;;;;;;2.76;87.12;99289.03;5031291;28;20243;-81
2021/11/29 04:31:07;;;;;;;4.80;4.30;;;;;;;2.77;87.71;99290.72;5039042;28;20289;-83
2021/11/29 04:33:34;;;;;;;4.93;4.50;;;;;;;2.76;87.73;99285.53;5035936;28;20211;-82
2021/11/29 04:36:01;;;;;;;4.97;4.10;;;;;;;2.76;87.80;99293.44;5033656;28;20286;-81
2021/11/29 04:38:29;;;;;;;4.37;3.97;;;;;;;2.76;87.60;99296.91;5032970;28;20247;-82
2021/11/29 04:40:56;;;;;;;4.97;4.47;;;;;;;2.75;87.50;99302.25;5041226;28;20195;-82
2021/11/29 04:43:22;;;;;;;4.60;4.20;;;;;;;2.73;87.50;99297.06;5039621;28;20187;-82
2021/11/29 04:45:49;;;;;;;4.17;3.77;;;;;;;2.72;87.84;99299.78;5029780;28;20262;-82
2021/11/29 04:48:16;;;;;;;4.57;3.73;;;;;;;2.69;87.43;99305.19;5045056;28;20217;-81
2021/11/29 04:50:42;;;;;;;3.57;3.27;;;;;;;2.68;87.52;99300.88;5030564;28;20250;-81
2021/11/29 04:53:09;;;;;;;6.17;3.27;;;;;;;2.68;87.43;99314.03;5031145;28;20225;-81
2021/11/29 04:55:37;;;;;;;4.23;3.63;;;;;;;2.67;87.93;99314.97;5045601;28;20241;-81
2021/11/29 04:58:03;;;;;;;4.93;3.63;;;;;;;2.67;87.97;99307.06;5042668;28;20274;-81
2021/11/29 05:00:30;;;;;;;4.63;3.73;;;;;;;2.67;87.80;99320.22;5033074;28;20234;-81
2021/11/29 05:02:57;;;;;;;4.20;2.83;;;;;;;2.66;87.83;99321.16;5041239;28;20237;-81
2021/11/29 05:05:24;;;;;;;4.43;3.50;;;;;;;2.65;87.55;99322.06;5047595;28;20625;-81
2021/11/29 05:07:50;;;;;;;4.23;3.27;;;;;;;2.64;87.08;99328.25;5028718;28;20263;-81
2021/11/29 05:10:17;;;;;;;7.10;2.97;;;;;;;2.65;87.72;99328.19;5026024;28;20199;-81
2021/11/29 05:12:45;;;;;;;4.87;3.13;;;;;;;2.64;87.02;99329.09;5025666;28;20265;-81
2021/11/29 05:15:11;;;;;;;3.23;2.90;;;;;;;2.65;87.55;99336.06;5018704;28;20232;-81
2021/11/29 05:17:39;;;;;;;4.57;2.90;;;;;;;2.66;87.08;99336.91;5027906;28;20826;-81
2021/11/29 05:20:06;;;;;;;6.07;3.57;;;;;;;2.64;87.66;99341.41;5027108;28;20211;-81
2021/11/29 05:22:33;;;;;;;4.67;3.43;;;;;;;2.64;87.92;99346.66;5026917;28;20229;-81
2021/11/29 05:25:00;;;;;;;7.17;3.63;;;;;;;2.60;87.28;99351.22;5034837;28;20301;-82
2021/11/29 05:27:26;;;;;;;3.97;3.27;;;;;;;2.60;86.92;99356.47;5028733;28;20623;-80
2021/11/29 05:29:54;;;;;;;4.87;3.33;;;;;;;2.58;86.99;99362.72;5031121;28;20270;-80
2021/11/29 05:32:21;;;;;;;5.53;3.57;;;;;;;2.57;87.86;99356.63;5026307;28;20219;-80
2021/11/29 05:34:47;;;;;;;5.40;3.47;;;;;;;2.54;87.52;99358.56;5029814;28;20241;-81
2021/11/29 05:37:14;;;;;;;3.57;3.27;;;;;;;2.54;86.81;99367.28;5027223;28;20205;-81
2021/11/29 05:39:40;;;;;;;6.07;3.90;;;;;;;2.53;87.35;99373.47;5029931;28;20269;-81
2021/11/29 05:42:07;;;;;;;5.53;3.93;;;;;;;2.51;87.21;99377.94;5026428;28;20708;-80
2021/11/29 05:44:35;;;;;;;5.83;3.90;;;;;;;2.51;87.51;99372.69;5026808;28;20230;-80
2021/11/29 05:47:03;;;;;;;7.10;4.10;;;;;;;2.52;87.63;99374.41;5024693;28;20233;-81
2021/11/29 05:49:30;;;;;;;7.70;4.43;;;;;;;2.53;87.67;99381.34;5028521;28;20230;-81
2021/11/29 05:51:58;;;;;;;6.57;4.03;;;;;;;2.53;86.79;99386.63;5027527;28;20641;-81
2021/11/29 05:54:24;;;;;;;6.13;4.73;;;;;;;2.53;86.79;99391.88;5026958;28;20251;-81
2021/11/29 05:56:51;;;;;;;8.27;4.40;;;;;;;2.52;87.27;99390.16;5024218;28;20203;-81
2021/11/29 05:59:20;;;;;;;6.70;4.40;;;;;;;2.52;87.35;99397.19;5027690;28;20979;-82
2021/11/29 06:01:47;;;;;;;7.70;4.47;;;;;;;2.49;87.27;99400.00;5027561;28;20211;-82
2021/11/29 06:04:15;;;;;;;5.20;4.40;;;;;;;2.49;87.21;99406.13;5027356;28;20242;-82
2021/11/29 06:06:42;;;;;;;7.73;4.60;;;;;;;2.48;86.88;99401.78;5027263;28;20203;-82
2021/11/29 06:09:09;;;;;;;11.57;6.67;;;;;;;2.47;86.92;99407.13;5027931;28;20246;-82
2021/11/29 06:11:36;;;;;;;6.87;4.97;;;;;;;2.46;87.18;99410.66;5027675;28;20199;-81
2021/11/29 06:14:03;;;;;;;7.77;4.80;;;;;;;2.48;87.05;99421.97;5022115;28;20227;-82
2021/11/29 06:16:29;;;;;;;9.33;5.13;;;;;;;2.45;87.28;99417.69;5027545;28;20226;-82
2021/11/29 06:18:56;;;;;;;7.97;5.00;;;;;;;2.44;87.20;99419.47;5026077;28;20217;-82
2021/11/29 06:21:24;;;;;;;6.70;4.93;;;;;;;2.46;87.14;99422.03;5028427;28;20246;-81
2021/11/29 06:23:51;;;;;;;9.80;5.13;;;;;;;2.48;87.46;99427.22;5028058;28;20290;-82
2021/11/29 06:26:18;;;;;;;9.97;7.03;;;;;;;2.48;87.21;99429.84;5028241;28;20231;-81
2021/11/29 06:28:45;;;;;;;22.40;10.97;;;;;;;2.46;87.17;99432.53;5028898;28;20214;-82
2021/11/29 06:31:11;;;;;;;8.43;6.10;;;;;;;2.49;87.00;99449.94;5027795;28;20286;-82
2021/11/29 06:33:38;;;;;;;9.70;5.50;;;;;;;2.47;87.68;99444.75;5021152;28;20445;-81
2021/11/29 06:36:05;;;;;;;5.97;4.80;;;;;;;2.48;86.97;99448.22;5022933;28;20250;-81
2021/11/29 06:38:34;;;;;;;6.33;5.23;;;;;;;2.47;87.47;99455.25;5021458;28;20213;-81
2021/11/29 06:41:00;;;;;;;8.87;4.77;;;;;;;2.47;87.58;99449.16;5022788;28;20282;-81
2021/11/29 06:43:28;;;;;;;7.70;4.33;;;;;;;2.46;87.86;99457.97;5031871;28;20213;-81
2021/11/29 06:45:55;;;;;;;8.30;5.00;;;;;;;2.47;87.95;99464.94;5039574;28;21019;-81
2021/11/29 06:48:22;;;;;;;9.10;5.50;;;;;;;2.46;87.09;99466.69;5012471;28;20265;-82
2021/11/29 06:50:50;;;;;;;7.43;4.77;;;;;;;2.47;87.71;99476.28;5036115;28;20289;-80
2021/11/29 06:53:17;;;;;;;5.67;5.17;;;;;;;2.47;87.68;99471.03;5023226;28;20213;-82
2021/11/29 06:55:46;;;;;;;8.73;5.43;;;;;;;2.47;87.68;99476.28;5022367;28;20310;-80
2021/11/29 06:58:13;;;;;;;9.30;5.20;;;;;;;2.46;87.77;99481.63;5022608;28;20207;-80
2021/11/29 07:00:40;;;;;;;7.43;5.27;;;;;;;2.45;87.97;99483.41;5023482;28;20203;-80
2021/11/29 07:03:06;;;;;;;7.17;5.90;;;;;;;2.46;87.74;99490.34;5021375;28;20203;-81
2021/11/29 07:05:33;;;;;;;8.20;4.93;;;;;;;2.45;87.36;99488.66;5021220;28;20239;-80
2021/11/29 07:08:00;;;;;;;6.33;4.53;;;;;;;2.43;87.49;99486.09;5031063;28;20233;-80
2021/11/29 07:10:28;;;;;;;5.63;4.70;;;;;;;2.41;88.07;99485.31;5030703;28;20293;-81
2021/11/29 07:12:57;;;;;;;5.87;4.83;;;;;;;2.39;87.85;99481.06;5015120;28;20249;-81
2021/11/29 07:15:25;;;;;;;7.63;5.23;;;;;;;2.38;87.97;99493.34;5023181;28;20598;-82
2021/11/29 07:17:52;;;;;;;6.63;5.17;;;;;;;2.37;88.12;99496.03;5026285;28;20242;-81
2021/11/29 07:20:19;;;;;;;8.40;5.23;;;;;;;2.37;87.34;99501.28;5024441;28;20673;-79
2021/11/29 07:22:46;;;;;;;8.47;4.80;;;;;;;2.36;88.00;99499.59;5024819;28;20297;-82
2021/11/29 07:25:13;;;;;;;6.50;5.27;;;;;;;2.37;88.30;99506.53;5034792;28;20227;-81
2021/11/29 07:27:40;;;;;;;6.40;5.13;;;;;;;2.37;88.38;99517.06;5027521;28;20220;-82
2021/11/29 07:30:11;;;;;;;8.57;5.10;;;;;;;2.37;88.16;99517.06;5021718;28;20246;-82
2021/11/29 07:32:38;;;;;;;6.57;5.17;;;;;;;2.38;87.71;99519.63;5026324;28;20199;-81
2021/11/29 07:35:05;;;;;;;6.10;4.80;;;;;;;2.38;87.68;99524.88;5034930;28;20245;-82
2021/11/29 07:37:32;;;;;;;7.63;5.13;;;;;;;2.40;87.79;99540.56;5033861;28;20229;-81
2021/11/29 07:39:59;;;;;;;7.30;4.73;;;;;;;2.41;88.42;99535.25;5021402;28;20207;-81
2021/11/29 07:42:26;;;;;;;7.77;5.13;;;;;;;2.42;87.69;99542.19;5029043;28;20241;-80
2021/11/29 07:44:54;;;;;;;7.90;5.37;;;;;;;2.43;88.52;99550.94;5022001;28;20762;-80
2021/11/29 07:47:22;;;;;;;8.63;5.53;;;;;;;2.45;87.82;99546.47;5022675;28;20233;-80
2021/11/29 07:49:49;;;;;;;9.77;6.77;;;;;;;2.47;88.58;99549.88;5034475;28;20763;-81
2021/11/29 07:52:15;;;;;;;8.13;5.30;;;;;;;2.46;87.95;99556.06;5030982;28;20215;-80
2021/11/29 07:54:42;;;;;;;7.70;5.70;;;;;;;2.47;88.67;99557.75;5021021;28;20295;-80
2021/11/29 07:57:11;;;;;;;9.00;5.50;;;;;;;2.47;88.74;99565.63;5029105;28;20207;-80
2021/11/29 07:59:38;;;;;;;6.37;4.87;;;;;;;2.48;88.19;99567.34;5022145;28;20241;-80
2021/11/29 08:02:05;;;;;;;6.60;5.27;;;;;;;2.49;88.50;99574.31;5026358;28;20220;-81
2021/11/29 08:04:33;;;;;;;6.43;4.97;;;;;;;2.48;87.96;99574.38;5031923;28;20246;-81
2021/11/29 08:07:00;;;;;;;7.43;5.57;;;;;;;2.47;88.30;99570.03;5021855;28;20334;-81
2021/11/29 08:09:26;;;;;;;10.73;5.57;;;;;;;2.47;88.10;99575.31;5022354;28;20210;-81
2021/11/29 08:11:53;;;;;;;7.80;5.83;;;;;;;2.47;88.30;99584.03;5021079;28;20214;-81
2021/11/29 08:14:19;;;;;;;8.07;6.30;;;;;;;2.47;88.05;99586.66;5021173;28;20233;-81
2021/11/29 08:16:46;;;;;;;8.20;6.30;;;;;;;2.46;87.75;99592.84;5011928;28;20212;-82
2021/11/29 08:19:13;;;;;;;9.87;5.67;;;;;;;2.47;88.41;99594.53;5023814;28;20656;-80
2021/11/29 08:21:41;;;;;;;10.40;5.93;;;;;;;2.47;88.03;99588.44;5041932;28;20293;-80
2021/11/29 08:24:07;;;;;;;8.50;5.73;;;;;;;2.47;88.23;99596.31;5027684;28;20294;-80
2021/11/29 08:26:34;;;;;;;6.53;5.60;;;;;;;2.49;87.88;99605.00;5042124;28;20614;-80
2021/11/29 08:29:00;;;;;;;13.43;6.93;;;;;;;2.48;88.05;99604.13;5040020;28;20260;-80
2021/11/29 08:31:27;;;;;;;7.87;5.83;;;;;;;2.49;87.80;99616.34;5018356;28;20202;-82
2021/11/29 08:33:53;;;;;;;7.13;5.23;;;;;;;2.49;88.15;99615.50;5041242;28;20214;-81
2021/11/29 08:36:20;;;;;;;7.27;5.87;;;;;;;2.47;87.95;99618.19;5028655;28;20245;-80
2021/11/29 08:38:48;;;;;;;9.10;6.07;;;;;;;2.46;87.77;99616.50;5033833;28;20293;-80
2021/11/29 08:41:16;;;;;;;9.07;5.87;;;;;;;2.48;88.13;99614.66;5022887;28;20206;-81
2021/11/29 08:43:43;;;;;;;9.00;6.23;;;;;;;2.48;88.08;99619.06;5025284;28;20211;-80
2021/11/29 08:46:09;;;;;;;10.17;6.63;;;;;;;2.45;88.10;99609.53;5023051;28;20239;-82
2021/11/29 08:48:36;;;;;;;9.33;5.87;;;;;;;2.47;87.82;99620.81;5024477;28;20207;-81
2021/11/29 08:51:03;;;;;;;10.70;6.30;;;;;;;2.49;87.82;99623.38;5023381;28;20704;-82
2021/11/29 08:53:30;;;;;;;10.53;6.63;;;;;;;2.50;88.07;99627.72;5022750;28;20207;-81
2021/11/29 08:55:59;;;;;;;10.23;6.37;;;;;;;2.51;87.99;99639.94;5022748;28;20234;-82
2021/11/29 08:58:26;;;;;;;13.30;6.93;;;;;;;2.53;87.90;99638.06;5024461;28;20219;-82
2021/11/29 09:00:54;;;;;;;7.87;6.47;;;;;;;2.55;87.85;99649.34;5029478;28;20211;-82
2021/11/29 09:03:22;;;;;;;9.20;6.83;;;;;;;2.56;88.73;99643.19;5022712;28;20278;-81
2021/11/29 09:05:48;;;;;;;11.60;7.87;;;;;;;2.59;88.26;99649.16;5029701;28;20292;-80
2021/11/29 09:08:16;;;;;;;11.37;7.50;;;;;;;2.60;87.98;99642.97;5041883;28;20217;-81
2021/11/29 09:10:46;;;;;;;10.93;7.30;;;;;;;2.61;88.49;99654.34;5025824;28;20221;-80
2021/11/29 09:13:15;;;;;;;9.97;7.00;;;;;;;2.62;88.50;99662.16;5024192;28;20274;-79
2021/11/29 09:15:44;;;;;;;10.80;7.20;;;;;;;2.64;88.77;99662.09;5044274;22;20321;-75
2021/11/29 09:18:11;;;;;;;10.40;7.30;;;;;;;2.65;87.91;99671.69;5053824;28;20217;-75
2021/11/29 09:20:39;;;;;;;14.30;7.20;;;;;;;2.65;88.34;99675.16;5033082;28;20234;-75
2021/11/29 09:23:06;;;;;;;10.67;7.13;;;;;;;2.67;88.47;99673.31;5037966;28;20217;-75
2021/11/29 09:25:33;;;;;;;10.33;6.80;;;;;;;2.67;87.98;99668.06;5038484;28;20664;-73
2021/11/29 09:28:00;;;;;;;10.63;7.10;;;;;;;2.71;88.08;99674.00;5031799;28;20230;-76
2021/11/29 09:30:28;;;;;;;10.63;6.53;;;;;;;2.73;88.70;99677.41;5035633;28;20738;-74
2021/11/29 09:32:55;;;;;;;9.70;6.50;;;;;;;2.74;88.92;99681.75;5047103;28;20675;-75
2021/11/29 09:35:21;;;;;;;11.83;8.23;;;;;;;2.75;88.90;99686.94;5044868;28;20217;-76
2021/11/29 09:37:49;;;;;;;12.57;7.13;;;;;;;2.77;88.19;99694.75;5033201;28;20240;-75
2021/11/29 09:40:20;;;;;;;11.23;6.77;;;;;;;2.79;88.75;99699.03;5038734;28;20744;-75
2021/11/29 09:42:47;;;;;;;9.10;6.07;;;;;;;2.81;89.00;99700.75;5038270;28;20214;-75
2021/11/29 09:45:14;;;;;;;9.57;6.53;;;;;;;2.80;88.60;99694.63;5034788;28;20216;-75
2021/11/29 09:47:43;;;;;;;9.73;6.30;;;;;;;2.82;88.82;99699.81;5035073;28;20234;-75
2021/11/29 09:50:11;;;;;;;10.80;6.40;;;;;;;2.83;88.53;99707.63;5033694;28;20226;-74
2021/11/29 09:52:38;;;;;;;9.00;5.70;;;;;;;2.83;88.67;99694.50;5043821;28;20759;-75
2021/11/29 09:55:06;;;;;;;11.97;6.63;;;;;;;2.84;88.03;99706.72;5032339;28;20305;-75
2021/11/29 09:57:32;;;;;;;10.83;7.23;;;;;;;2.84;88.75;99700.59;5035226;28;20206;-75
2021/11/29 10:00:00;;;;;;;12.30;7.13;;;;;;;2.84;88.63;99711.13;5031504;28;20230;-75
2021/11/29 10:02:26;;;;;;;10.13;6.83;;;;;;;2.83;87.95;99706.78;5033208;28;20695;-74
2021/11/29 10:04:54;;;;;;;10.70;7.50;;;;;;;2.82;88.88;99716.44;5031628;28;20210;-75
2021/11/29 10:07:28;;;;;;;11.80;6.97;;;;;;;2.84;88.30;99713.75;5030776;28;20251;-75
2021/11/29 10:09:56;;;;;;;13.73;7.77;;;;;;;2.85;88.53;99724.19;5030889;28;20230;-75
2021/11/29 10:12:26;;;;;;;14.20;8.17;;;;;;;2.88;88.56;99720.53;5030369;28;20676;-75
2021/11/29 10:15:13;;;;;;;11.17;7.80;;;;;;;2.88;88.71;99721.41;5031288;28;20209;-75
2021/11/29 10:17:40;;;;;;;15.97;11.23;;;;;;;2.89;88.23;99727.50;5039883;28;20689;-75
2021/11/29 10:20:09;;;;;;;72.07;37.20;;;;;;;2.91;87.95;99728.28;5031242;28;20697;-75
2021/11/29 10:22:35;;;;;;;16.73;11.67;;;;;;;2.91;88.90;99731.78;5041365;28;20206;-75
2021/11/29 10:25:14;;;;;;;16.43;9.60;;;;;;;2.91;88.05;99739.66;5029416;28;20220;-75
2021/11/29 10:27:43;;;;;;;17.30;9.90;;;;;;;2.92;88.68;99746.63;5041414;28;20261;-75
2021/11/29 10:30:12;;;;;;;16.27;10.40;;;;;;;2.94;88.07;99755.31;5031509;28;20320;-74
2021/11/29 10:32:41;;;;;;;13.27;8.03;;;;;;;2.93;88.01;99750.97;5030716;28;20216;-75
2021/11/29 10:35:11;;;;;;;15.73;9.37;;;;;;;2.93;87.75;99753.59;5030421;28;20599;-75
2021/11/29 10:37:39;;;;;;;17.93;9.33;;;;;;;2.95;88.15;99753.53;5042352;28;20205;-75
2021/11/29 10:40:08;;;;;;;15.30;9.90;;;;;;;2.94;88.25;99751.81;5032473;28;20265;-73
2021/11/29 10:42:35;;;;;;;12.23;8.17;;;;;;;2.95;88.55;99750.91;5040319;28;20212;-75
2021/11/29 10:45:01;;;;;;;10.93;7.67;;;;;;;2.98;87.81;99750.78;5041605;28;20209;-75
2021/11/29 10:47:32;;;;;;;12.70;7.80;;;;;;;3.00;88.62;99757.66;5030164;28;20246;-75
2021/11/29 10:50:00;;;;;;;13.03;8.20;;;;;;;3.01;88.31;99762.00;5040711;28;20316;-75
2021/11/29 10:52:33;;;;;;;14.77;9.30;;;;;;;3.01;87.71;99751.47;5034125;28;20576;-75
2021/11/29 10:55:00;;;;;;;15.30;11.33;;;;;;;3.03;88.20;99754.91;5039663;28;20214;-75
2021/11/29 10:57:28;;;;;;;14.70;9.80;;;;;;;3.04;88.52;99756.59;5031625;28;20217;-75
2021/11/29 10:59:55;;;;;;;19.07;15.13;;;;;;;3.05;88.04;99749.53;5029811;28;20230;-75
2021/11/29 11:02:24;;;;;;;13.83;10.27;;;;;;;3.06;87.72;99754.72;5030852;28;20210;-75
2021/11/29 11:05:04;;;;;;;13.30;11.03;;;;;;;3.08;88.25;99749.41;5036429;28;20217;-74
2021/11/29 11:07:33;;;;;;;12.63;9.90;;;;;;;3.10;88.51;99752.81;5036845;28;20596;-75
2021/11/29 11:10:02;;;;;;;12.53;9.67;;;;;;;3.13;87.74;99758.78;5030299;28;21063;-76
2021/11/29 11:12:32;;;;;;;13.80;9.20;;;;;;;3.15;87.90;99753.47;5031813;28;20214;-75
2021/11/29 11:15:04;;;;;;;13.20;8.47;;;;;;;3.15;87.50;99761.34;5045369;28;20242;-75
2021/11/29 11:17:33;;;;;;;12.33;8.77;;;;;;;3.14;87.59;99759.66;5030158;28;20218;-77
2021/11/29 11:20:02;;;;;;;14.27;10.37;;;;;;;3.14;88.32;99763.13;5043800;28;20238;-75
2021/11/29 11:22:30;;;;;;;12.83;8.50;;;;;;;3.15;87.24;99771.88;5032620;28;20591;-75
2021/11/29 11:25:00;;;;;;;14.23;9.70;;;;;;;3.17;87.42;99771.81;5029858;28;20210;-75
2021/11/29 11:27:29;;;;;;;15.63;9.10;;;;;;;3.17;87.69;99771.81;5018614;28;20230;-75
2021/11/29 11:29:58;;;;;;;13.13;8.13;;;;;;;3.17;87.10;99775.28;5030202;28;20233;-75
2021/11/29 11:32:28;;;;;;;13.00;9.00;;;;;;;3.18;87.05;99776.16;5031683;28;20210;-75
2021/11/29 11:34:56;;;;;;;12.67;8.37;;;;;;;3.16;87.68;99770.94;5042633;28;20210;-75
2021/11/29 11:37:25;;;;;;;11.27;7.27;;;;;;;3.16;87.46;99776.22;5030800;28;20550;-75
2021/11/29 11:39:53;;;;;;;11.27;7.90;;;;;;;3.15;87.00;99774.50;5029649;28;20234;-75